Time;durP1;ratioP1;P1;durP2;ratioP2;P2;SDS_P1;SDS_P2;PMS_P1;PMS_P2;Temp;Humidity;BMP_temperature;BMP_pressure;BME280_temperature;BME280_humidity;BME280_pressure;Samples;Min_cycle;Max_cycle;Signal;HPM_P1;HPM_P2
2022/06/11 00:01:15;;;;;;;4.07;3.30;;;18.30;78.40;;;;;;5050276;28;20489;-49
2022/06/11 00:03:42;;;;;;;3.70;3.00;;;18.20;81.10;;;;;;5046736;28;20476;-49
2022/06/11 00:06:09;;;;;;;6.20;3.30;;;18.20;79.60;;;;;;5049901;28;20515;-48
2022/06/11 00:08:35;;;;;;;4.73;3.10;;;18.20;73.60;;;;;;5052884;28;20498;-50
2022/06/11 00:11:02;;;;;;;5.87;3.63;;;18.20;76.10;;;;;;5051452;28;20496;-49
2022/06/11 00:13:29;;;;;;;7.60;3.70;;;18.20;75.00;;;;;;5052452;28;20485;-49
2022/06/11 00:15:56;;;;;;;5.50;3.47;;;18.20;73.50;;;;;;5048554;28;20490;-49
2022/06/11 00:18:25;;;;;;;4.13;3.73;;;18.20;77.00;;;;;;5050803;28;20521;-49
2022/06/11 00:20:52;;;;;;;4.10;3.20;;;18.10;75.00;;;;;;5050153;28;20489;-49
2022/06/11 00:23:19;;;;;;;4.70;3.60;;;18.20;75.20;;;;;;5051690;28;20493;-49
2022/06/11 00:25:46;;;;;;;7.23;3.10;;;18.10;71.80;;;;;;5049881;28;20458;-49
2022/06/11 00:28:13;;;;;;;12.50;4.00;;;18.10;67.20;;;;;;5045601;28;20470;-50
2022/06/11 00:30:39;;;;;;;3.67;3.20;;;18.10;71.80;;;;;;5051719;28;20458;-49
2022/06/11 00:33:07;;;;;;;4.67;3.10;;;18.00;68.10;;;;;;5048834;28;21180;-50
2022/06/11 00:35:36;;;;;;;6.53;3.40;;;18.10;66.70;;;;;;5046821;28;20449;-50
2022/06/11 00:38:04;;;;;;;4.00;3.20;;;18.00;63.50;;;;;;5051275;28;20524;-49
2022/06/11 00:40:34;;;;;;;5.63;3.23;;;18.00;68.70;;;;;;5050459;28;20493;-49
2022/06/11 00:43:00;;;;;;;8.37;3.70;;;17.90;64.10;;;;;;5051752;28;20867;-49
2022/06/11 00:45:32;;;;;;;3.73;3.20;;;17.90;64.80;;;;;;5046763;28;20498;-50
2022/06/11 00:48:02;;;;;;;5.90;3.10;;;17.90;62.00;;;;;;5048818;28;20481;-50
2022/06/11 00:50:37;;;;;;;4.90;3.27;;;17.90;61.80;;;;;;5042855;28;20461;-49
2022/06/11 00:53:06;;;;;;;9.83;3.47;;;17.80;56.50;;;;;;5047307;28;20548;-49
2022/06/11 00:55:37;;;;;;;8.10;3.70;;;17.90;59.00;;;;;;5049135;28;20493;-48
2022/06/11 00:58:08;;;;;;;4.80;3.30;;;17.80;58.70;;;;;;5051123;28;20493;-49
2022/06/11 01:00:38;;;;;;;7.43;3.47;;;17.80;60.20;;;;;;5050376;28;20576;-49
2022/06/11 01:03:06;;;;;;;3.93;3.50;;;17.80;53.00;;;;;;5051276;28;20468;-49
2022/06/11 01:05:38;;;;;;;4.33;3.70;;;17.70;52.90;;;;;;5047905;28;20513;-49
2022/06/11 01:08:42;;;;;;;6.97;3.73;;;17.70;43.70;;;;;;5048965;28;20907;-49
2022/06/11 01:11:30;;;;;;;4.73;3.23;;;17.70;40.70;;;;;;5046906;28;20571;-49
2022/06/11 01:14:15;;;;;;;5.50;3.70;;;17.70;40.20;;;;;;5043669;28;20454;-49
2022/06/11 01:16:48;;;;;;;8.00;3.90;;;17.60;40.50;;;;;;5046720;28;20509;-49
2022/06/11 01:19:35;;;;;;;4.33;3.87;;;17.60;42.50;;;;;;5042472;28;20501;-49
2022/06/11 01:22:14;;;;;;;5.60;3.77;;;17.60;37.00;;;;;;5039542;28;20553;-49
2022/06/11 01:24:55;;;;;;;11.40;3.60;;;17.50;38.00;;;;;;5044841;28;20493;-49
2022/06/11 01:27:40;;;;;;;4.77;3.40;;;17.50;35.50;;;;;;5048388;28;20474;-49
2022/06/11 01:30:12;;;;;;;3.90;3.50;;;17.40;37.80;;;;;;5050786;28;20933;-49
2022/06/11 01:32:46;;;;;;;4.77;3.30;;;17.40;33.60;;;;;;5044170;28;20899;-49
2022/06/11 01:35:24;;;;;;;4.00;3.23;;;17.40;28.70;;;;;;5049011;28;20876;-49
2022/06/11 01:37:55;;;;;;;4.10;3.10;;;17.30;25.80;;;;;;5046161;28;20494;-49
2022/06/11 01:40:32;;;;;;;6.77;3.60;;;17.20;22.90;;;;;;5045708;28;20517;-49
2022/06/11 01:43:04;;;;;;;7.20;4.00;;;17.10;22.60;;;;;;5050092;28;20449;-49
2022/06/11 01:45:35;;;;;;;4.37;3.40;;;17.00;73.80;;;;;;5050663;28;20829;-49
2022/06/11 01:48:04;;;;;;;5.27;3.57;;;16.90;87.70;;;;;;5049895;28;20500;-49
2022/06/11 01:50:36;;;;;;;10.60;5.03;;;16.80;95.80;;;;;;5049275;28;20466;-49
2022/06/11 01:53:31;;;;;;;3.97;3.50;;;16.80;99.90;;;;;;5049920;28;20465;-49
2022/06/11 01:56:10;;;;;;;6.23;3.73;;;16.70;99.90;;;;;;5049196;28;20477;-49
2022/06/11 01:59:03;;;;;;;4.93;4.43;;;16.60;99.90;;;;;;5035193;28;20485;-49
2022/06/11 02:01:43;;;;;;;6.50;3.70;;;16.60;99.90;;;;;;5047071;28;20458;-49
2022/06/11 02:04:18;;;;;;;4.77;3.40;;;16.60;99.90;;;;;;5050258;28;20461;-49
2022/06/11 02:06:51;;;;;;;8.40;4.00;;;16.50;99.90;;;;;;5046282;28;20847;-48
2022/06/11 02:09:25;;;;;;;5.30;4.00;;;16.50;99.90;;;;;;5048699;28;20518;-49
2022/06/11 02:12:02;;;;;;;9.80;3.53;;;16.50;99.90;;;;;;5045350;28;20464;-49
2022/06/11 02:14:33;;;;;;;11.93;4.10;;;16.50;99.90;;;;;;5047521;28;20454;-49
2022/06/11 02:17:07;;;;;;;9.10;4.03;;;16.40;99.90;;;;;;5048779;28;20493;-48
2022/06/11 02:19:40;;;;;;;8.57;4.07;;;16.40;99.90;;;;;;5049921;28;20506;-49
2022/06/11 02:22:12;;;;;;;5.03;3.70;;;16.40;99.90;;;;;;5048656;28;20540;-48
2022/06/11 02:24:44;;;;;;;7.80;3.77;;;16.30;99.90;;;;;;5047376;28;20462;-49
2022/06/11 02:27:16;;;;;;;4.00;3.57;;;16.40;99.90;;;;;;5051009;28;20466;-48
2022/06/11 02:29:44;;;;;;;5.10;3.70;;;16.30;99.90;;;;;;5046851;28;20454;-49
2022/06/11 02:32:16;;;;;;;5.67;3.40;;;16.30;99.90;;;;;;5048163;28;20457;-49
2022/06/11 02:34:49;;;;;;;5.20;4.10;;;16.30;99.90;;;;;;5049203;28;20457;-49
2022/06/11 02:37:21;;;;;;;6.33;4.20;;;16.30;99.90;;;;;;5048090;28;20478;-49
2022/06/11 02:39:49;;;;;;;7.80;3.80;;;16.40;99.90;;;;;;5046645;28;21220;-48
2022/06/11 02:42:18;;;;;;;6.43;4.37;;;16.30;99.90;;;;;;5048926;28;20458;-49
2022/06/11 02:44:45;;;;;;;5.73;3.87;;;16.40;99.90;;;;;;5042485;28;20459;-49
2022/06/11 02:47:14;;;;;;;5.90;4.00;;;16.40;99.90;;;;;;5042564;28;21030;-48
2022/06/11 02:49:42;;;;;;;4.77;4.37;;;16.40;99.90;;;;;;5043569;28;20446;-48
2022/06/11 02:52:11;;;;;;;5.00;4.20;;;16.40;99.90;;;;;;5045301;28;20458;-49
2022/06/11 02:54:38;;;;;;;10.70;4.03;;;16.40;99.90;;;;;;5042821;28;20454;-49
2022/06/11 02:57:07;;;;;;;3.80;3.50;;;16.50;99.90;;;;;;5047288;28;21037;-48
2022/06/11 02:59:33;;;;;;;6.17;3.77;;;16.50;99.90;;;;;;5048732;28;20535;-49
2022/06/11 03:02:01;;;;;;;7.67;3.73;;;16.50;99.90;;;;;;5045622;28;20470;-49
2022/06/11 03:04:31;;;;;;;7.17;4.00;;;16.50;99.90;;;;;;5049389;28;20457;-49
2022/06/11 03:06:57;;;;;;;4.60;4.20;;;16.50;99.90;;;;;;5050028;28;20505;-49
2022/06/11 03:09:28;;;;;;;6.63;3.60;;;16.50;99.90;;;;;;5050210;28;20480;-48
2022/06/11 03:11:55;;;;;;;5.47;3.60;;;16.50;99.90;;;;;;5042941;28;21027;-49
2022/06/11 03:14:22;;;;;;;7.20;4.20;;;16.60;99.90;;;;;;5048775;28;20454;-48
2022/06/11 03:16:49;;;;;;;7.10;3.60;;;16.60;99.90;;;;;;5041901;28;20539;-49
2022/06/11 03:19:18;;;;;;;6.30;3.87;;;16.70;99.90;;;;;;5046307;28;20477;-49
2022/06/11 03:21:46;;;;;;;8.30;4.27;;;16.70;99.90;;;;;;5048125;28;20469;-49
2022/06/11 03:24:13;;;;;;;9.30;3.87;;;16.70;99.90;;;;;;5051943;28;20454;-49
2022/06/11 03:26:39;;;;;;;5.70;3.57;;;16.70;99.90;;;;;;5051525;28;20485;-49
2022/06/11 03:29:08;;;;;;;6.90;3.87;;;16.70;99.90;;;;;;5053744;28;20488;-49
2022/06/11 03:31:35;;;;;;;11.27;4.97;;;16.70;99.90;;;;;;5048810;28;20464;-48
2022/06/11 03:34:02;;;;;;;6.33;4.50;;;16.80;99.90;;;;;;5048650;28;20894;-48
2022/06/11 03:36:29;;;;;;;4.87;4.13;;;16.80;99.90;;;;;;5052603;28;20509;-48
2022/06/11 03:38:57;;;;;;;5.10;4.07;;;16.80;99.90;;;;;;5051195;28;20532;-54
2022/06/11 03:41:24;;;;;;;9.05;4.50;;;16.90;99.90;;;;;;5049500;28;20525;-54
2022/06/11 03:43:51;;;;;;;5.00;4.10;;;16.90;99.90;;;;;;5052725;28;20665;-55
2022/06/11 03:46:19;;;;;;;8.40;4.60;;;16.90;99.90;;;;;;5049339;28;20915;-54
2022/06/11 03:48:46;;;;;;;9.33;4.43;;;16.90;99.90;;;;;;5051052;28;20878;-54
2022/06/11 03:51:13;;;;;;;12.80;4.70;;;16.90;99.90;;;;;;5049853;28;20450;-54
2022/06/11 03:53:41;;;;;;;5.10;4.17;;;17.00;99.90;;;;;;5050282;28;20493;-54
2022/06/11 03:56:11;;;;;;;8.90;3.83;;;17.00;99.90;;;;;;5052169;28;20457;-54
2022/06/11 03:58:39;;;;;;;7.87;4.70;;;17.00;99.90;;;;;;5044940;28;20833;-54
2022/06/11 04:01:16;;;;;;;18.23;4.50;;;17.10;99.90;;;;;;5039396;28;20468;-54
2022/06/11 04:03:44;;;;;;;5.90;4.10;;;17.10;99.90;;;;;;5048553;28;20546;-54
2022/06/11 04:06:11;;;;;;;8.00;4.30;;;17.10;99.90;;;;;;5048838;28;20501;-55
2022/06/11 04:08:38;;;;;;;5.47;4.30;;;17.10;99.90;;;;;;5047026;28;20458;-54
2022/06/11 04:11:06;;;;;;;13.33;3.90;;;17.10;99.90;;;;;;5049036;28;20560;-55
2022/06/11 04:13:38;;;;;;;7.60;4.77;;;17.20;99.90;;;;;;5049930;28;20486;-54
2022/06/11 04:16:06;;;;;;;7.83;4.20;;;17.20;99.90;;;;;;5037219;28;20520;-54
2022/06/11 04:18:37;;;;;;;5.77;3.80;;;17.30;99.90;;;;;;5042021;28;20520;-55
2022/06/11 04:21:06;;;;;;;5.90;4.70;;;17.30;99.90;;;;;;5045159;28;20485;-54
2022/06/11 04:23:34;;;;;;;4.67;3.97;;;17.30;99.90;;;;;;5049728;28;20535;-54
2022/06/11 04:26:05;;;;;;;3.70;3.47;;;17.40;99.90;;;;;;5052318;28;20955;-55
2022/06/11 04:28:34;;;;;;;4.67;3.77;;;17.40;99.90;;;;;;5049281;28;20528;-55
2022/06/11 04:31:03;;;;;;;5.00;4.00;;;17.40;99.90;;;;;;5048538;28;20539;-54
2022/06/11 04:33:29;;;;;;;8.10;4.47;;;17.50;99.90;;;;;;5050121;28;20465;-54
2022/06/11 04:35:56;;;;;;;5.13;3.70;;;17.50;99.90;;;;;;5051777;28;20516;-55
2022/06/11 04:38:24;;;;;;;7.57;4.20;;;17.60;99.90;;;;;;5050722;28;20536;-54
2022/06/11 04:40:50;;;;;;;7.63;3.50;;;17.60;99.90;;;;;;5047610;28;20512;-55
2022/06/11 04:43:17;;;;;;;6.20;3.60;;;17.70;99.90;;;;;;5045798;28;20474;-55
2022/06/11 04:45:45;;;;;;;6.70;3.30;;;17.80;99.90;;;;;;5050916;28;20516;-54
2022/06/11 04:48:12;;;;;;;6.10;3.53;;;17.80;21.10;;;;;;5051832;28;20481;-54
2022/06/11 04:50:38;;;;;;;5.00;3.30;;;17.90;23.40;;;;;;5050397;28;20508;-55
2022/06/11 04:53:06;;;;;;;3.23;2.90;;;18.00;26.60;;;;;;5051293;28;20821;-54
2022/06/11 04:55:33;;;;;;;6.17;3.67;;;18.10;29.10;;;;;;5051129;28;20489;-54
2022/06/11 04:58:00;;;;;;;5.80;4.63;;;18.10;32.10;;;;;;5047336;28;20485;-55
2022/06/11 05:00:29;;;;;;;8.03;4.23;;;18.10;38.60;;;;;;5045768;28;20481;-55
2022/06/11 05:02:57;;;;;;;8.70;3.67;;;18.20;41.50;;;;;;5045945;28;20441;-55
2022/06/11 05:05:25;;;;;;;9.10;4.00;;;18.30;44.90;;;;;;5049303;28;21040;-55
2022/06/11 05:07:52;;;;;;;7.33;3.60;;;18.30;40.30;;;;;;5051830;28;20995;-55
2022/06/11 05:10:20;;;;;;;6.03;3.40;;;18.40;37.30;;;;;;5050274;28;20544;-54
2022/06/11 05:12:47;;;;;;;9.63;3.63;;;18.40;40.60;;;;;;5042757;28;20543;-55
2022/06/11 05:15:14;;;;;;;5.03;3.30;;;18.40;42.70;;;;;;5048733;28;20458;-55
2022/06/11 05:17:41;;;;;;;7.77;3.67;;;18.50;42.90;;;;;;5046441;28;20854;-55
2022/06/11 05:20:11;;;;;;;8.30;3.37;;;18.50;45.20;;;;;;5046866;28;20540;-55
2022/06/11 05:22:39;;;;;;;10.50;4.20;;;18.60;45.50;;;;;;5050715;28;20837;-55
2022/06/11 05:25:07;;;;;;;9.40;3.97;;;18.60;46.30;;;;;;5051899;28;20468;-54
2022/06/11 05:27:35;;;;;;;10.60;3.50;;;18.60;47.00;;;;;;5047805;28;20555;-56
2022/06/11 05:30:06;;;;;;;5.63;3.80;;;18.70;47.90;;;;;;5050797;28;20454;-54
2022/06/11 05:32:37;;;;;;;6.23;3.50;;;18.70;48.30;;;;;;5047728;28;20454;-54
2022/06/11 05:35:07;;;;;;;9.60;3.70;;;18.80;49.50;;;;;;5046384;28;20462;-55
2022/06/11 05:37:35;;;;;;;6.63;3.73;;;18.90;50.50;;;;;;5048408;28;20503;-55
2022/06/11 05:40:02;;;;;;;7.97;3.67;;;18.90;51.20;;;;;;5049648;28;20482;-54
2022/06/11 05:42:28;;;;;;;9.07;3.53;;;19.00;50.90;;;;;;5044578;28;20458;-55
2022/06/11 05:44:55;;;;;;;9.70;3.90;;;19.00;52.40;;;;;;5044426;28;20940;-54
2022/06/11 05:47:24;;;;;;;6.50;2.83;;;19.10;57.00;;;;;;5048927;28;20901;-55
2022/06/11 05:49:56;;;;;;;3.37;3.13;;;19.10;60.40;;;;;;5043325;28;20458;-54
2022/06/11 05:52:27;;;;;;;4.80;3.20;;;19.20;64.00;;;;;;5043104;28;20555;-55
2022/06/11 05:54:56;;;;;;;3.63;3.27;;;19.20;66.70;;;;;;5043292;28;20579;-54
2022/06/11 05:57:26;;;;;;;4.60;3.70;;;19.30;70.90;;;;;;5042244;28;20991;-55
2022/06/11 05:59:57;;;;;;;8.33;3.70;;;19.30;70.40;;;;;;5048085;28;20539;-54
2022/06/11 06:02:25;;;;;;;11.90;3.90;;;19.30;70.70;;;;;;5044517;28;20489;-54
2022/06/11 06:04:51;;;;;;;12.43;5.07;;;19.30;72.60;;;;;;5049036;28;20859;-55
2022/06/11 06:07:18;;;;;;;11.30;3.80;;;19.30;73.30;;;;;;5048365;28;20495;-55
2022/06/11 06:09:45;;;;;;;9.47;5.03;;;19.40;73.50;;;;;;5046357;28;20927;-54
2022/06/11 06:12:14;;;;;;;9.60;4.60;;;19.40;73.60;;;;;;5046567;28;20453;-54
2022/06/11 06:14:41;;;;;;;13.30;4.10;;;19.40;72.50;;;;;;5043227;28;20877;-54
2022/06/11 06:17:08;;;;;;;12.37;4.73;;;19.40;71.90;;;;;;5046860;28;20489;-55
2022/06/11 06:19:34;;;;;;;14.17;4.80;;;19.50;67.30;;;;;;5043378;28;20496;-54
2022/06/11 06:22:04;;;;;;;14.13;4.53;;;19.50;70.60;;;;;;5042535;28;20466;-54
2022/06/11 06:24:31;;;;;;;9.60;3.97;;;19.50;71.00;;;;;;5044435;28;20975;-55
2022/06/11 06:26:58;;;;;;;8.17;4.20;;;19.50;72.30;;;;;;5047836;28;20481;-54
2022/06/11 06:29:26;;;;;;;15.83;4.47;;;19.60;72.70;;;;;;5044741;28;20450;-55
2022/06/11 06:31:52;;;;;;;9.00;3.70;;;19.60;73.60;;;;;;5046956;28;20458;-56
2022/06/11 06:34:19;;;;;;;8.77;2.80;;;19.60;76.70;;;;;;5046013;28;20887;-55
2022/06/11 06:36:46;;;;;;;15.17;4.10;;;19.60;73.30;;;;;;5047489;28;20532;-56
2022/06/11 06:39:13;;;;;;;10.07;3.60;;;19.70;77.60;;;;;;5039005;28;20463;-56
2022/06/11 06:41:39;;;;;;;4.27;3.07;;;19.70;78.80;;;;;;5046573;28;20529;-55
2022/06/11 06:44:06;;;;;;;6.37;3.20;;;19.70;78.60;;;;;;5045347;28;20547;-56
2022/06/11 06:46:34;;;;;;;4.70;3.23;;;19.80;76.70;;;;;;5045811;28;20530;-56
2022/06/11 06:49:01;;;;;;;6.07;3.50;;;19.80;76.90;;;;;;5047169;28;20868;-56
2022/06/11 06:51:27;;;;;;;9.40;3.30;;;19.80;83.00;;;;;;5043525;28;20532;-55
2022/06/11 06:53:54;;;;;;;14.83;3.10;;;19.90;87.20;;;;;;5041716;28;20482;-55
2022/06/11 06:56:25;;;;;;;5.83;2.93;;;19.90;85.40;;;;;;5048448;28;20521;-56
2022/06/11 06:58:52;;;;;;;9.53;3.53;;;19.90;87.50;;;;;;5050465;28;20489;-55
2022/06/11 07:01:18;;;;;;;9.33;2.97;;;20.00;87.90;;;;;;5048702;28;20509;-55
2022/06/11 07:03:46;;;;;;;11.67;3.40;;;20.00;92.00;;;;;;5051907;28;20461;-55
2022/06/11 07:06:13;;;;;;;10.87;3.53;;;20.00;90.80;;;;;;5052348;28;20874;-56
2022/06/11 07:08:39;;;;;;;10.90;2.73;;;20.10;92.70;;;;;;5044707;28;20516;-55
2022/06/11 07:11:06;;;;;;;7.80;3.00;;;20.10;91.70;;;;;;5048146;28;20604;-56
2022/06/11 07:13:32;;;;;;;3.23;2.60;;;20.20;94.20;;;;;;5049210;28;20539;-56
2022/06/11 07:16:01;;;;;;;16.90;3.60;;;20.20;95.20;;;;;;5039603;28;20450;-55
2022/06/11 07:18:31;;;;;;;10.33;3.97;;;20.30;99.90;;;;;;5049179;28;20477;-54
2022/06/11 07:21:02;;;;;;;11.77;2.77;;;20.40;99.90;;;;;;5043866;28;20567;-57
2022/06/11 07:23:35;;;;;;;6.70;3.20;;;20.40;99.90;;;;;;5046154;28;20457;-55
2022/06/11 07:26:08;;;;;;;20.13;3.40;;;20.50;99.90;;;;;;5048336;28;20829;-56
2022/06/11 07:28:39;;;;;;;11.73;3.57;;;20.50;99.90;;;;;;5045366;28;20457;-55
2022/06/11 07:31:06;;;;;;;10.03;2.90;;;20.60;99.90;;;;;;5045352;28;20531;-55
2022/06/11 07:33:33;;;;;;;4.83;2.50;;;20.70;99.90;;;;;;5054691;28;20442;-54
2022/06/11 07:36:07;;;;;;;7.63;3.57;;;20.70;99.90;;;;;;5051740;28;20461;-55
2022/06/11 07:38:34;;;;;;;10.30;4.80;;;20.80;99.90;;;;;;5053521;28;20485;-55
2022/06/11 07:41:05;;;;;;;5.97;2.90;;;20.80;99.90;;;;;;5052886;28;20486;-55
2022/06/11 07:43:35;;;;;;;9.80;2.77;;;20.90;99.90;;;;;;5052085;28;20450;-55
2022/06/11 07:46:12;;;;;;;10.23;2.90;;;20.90;99.90;;;;;;5050855;28;20450;-55
2022/06/11 07:51:23;;;;;;;4.17;2.80;;;21.10;99.90;;;;;;5050530;28;20465;-55
2022/06/11 07:53:50;;;;;;;8.50;2.63;;;21.10;99.90;;;;;;5044888;28;20529;-55
2022/06/11 07:56:19;;;;;;;9.07;3.00;;;21.10;99.90;;;;;;5047015;28;20482;-56
2022/06/11 07:58:46;;;;;;;6.37;2.90;;;21.20;99.90;;;;;;5050548;28;20458;-55
2022/06/11 08:01:13;;;;;;;6.00;3.17;;;21.30;99.90;;;;;;5043907;28;20486;-55
2022/06/11 08:03:40;;;;;;;12.17;3.57;;;21.50;99.90;;;;;;5050689;28;20913;-49
2022/06/11 08:06:08;;;;;;;7.63;2.53;;;21.60;99.90;;;;;;5051269;28;21236;-49
2022/06/11 08:08:36;;;;;;;5.70;2.20;;;21.70;99.90;;;;;;5047718;28;20462;-54
2022/06/11 08:11:05;;;;;;;4.47;2.93;;;21.70;99.90;;;;;;5048268;28;20458;-53
2022/06/11 08:13:33;;;;;;;4.10;2.40;;;21.80;99.90;;;;;;5037855;28;20497;-54
2022/06/11 08:16:00;;;;;;;3.83;2.67;;;21.90;99.90;;;;;;5048937;28;20519;-53
2022/06/11 08:18:30;;;;;;;14.17;2.33;;;21.90;99.90;;;;;;5052591;28;20886;-54
2022/06/11 08:20:56;;;;;;;5.17;2.90;;;22.00;99.90;;;;;;5050601;28;20858;-53
2022/06/11 08:23:24;;;;;;;6.63;3.27;;;22.10;99.90;;;;;;5053459;28;20935;-53
2022/06/11 08:25:52;;;;;;;5.60;2.80;;;22.10;99.90;;;;;;5052866;28;20453;-53
2022/06/11 08:28:19;;;;;;;5.67;2.40;;;22.10;99.90;;;;;;5040437;28;20486;-53
2022/06/11 08:30:47;;;;;;;6.30;2.30;;;22.20;99.90;;;;;;5052533;28;20583;-54
2022/06/11 08:33:13;;;;;;;8.63;2.83;;;22.20;99.90;;;;;;5052734;28;20445;-53
2022/06/11 08:35:40;;;;;;;3.33;1.87;;;22.20;99.90;;;;;;5053526;28;20454;-53
2022/06/11 08:38:07;;;;;;;7.87;2.93;;;22.30;99.90;;;;;;5053742;28;21037;-55
2022/06/11 08:40:38;;;;;;;7.93;2.17;;;22.30;99.90;;;;;;5066531;28;21049;-53
2022/06/11 08:43:26;;;;;;;6.37;2.90;;;22.30;99.90;;;;;;5051054;28;20463;-53
2022/06/11 08:45:56;;;;;;;5.50;2.30;;;22.30;99.90;;;;;;5050681;28;20507;-54
2022/06/11 08:48:30;;;;;;;4.10;2.27;;;22.30;99.90;;;;;;5053381;28;20466;-54
2022/06/11 08:51:04;;;;;;;5.13;1.60;;;22.30;99.90;;;;;;5053083;28;20433;-53
2022/06/11 08:53:33;;;;;;;5.20;2.27;;;22.30;99.90;;;;;;5050774;28;20484;-54
2022/06/11 08:56:00;;;;;;;5.77;2.10;;;22.40;99.90;;;;;;5052303;28;20527;-53
2022/06/11 08:58:44;;;;;;;6.23;2.90;;;22.40;99.90;;;;;;5042764;28;20509;-53
2022/06/11 09:01:18;;;;;;;4.77;2.00;;;22.50;99.90;;;;;;5045630;28;20527;-54
2022/06/11 09:04:00;;;;;;;5.67;2.40;;;22.60;99.90;;;;;;5049136;28;20466;-54
2022/06/11 09:06:43;;;;;;;6.73;3.27;;;22.60;99.90;;;;;;5047005;28;20528;-55
2022/06/11 09:09:20;;;;;;;6.63;2.20;;;22.70;99.90;;;;;;5041286;28;20473;-53
2022/06/11 09:12:04;;;;;;;5.90;1.97;;;22.70;99.90;;;;;;5046293;28;20461;-54
2022/06/11 09:15:07;;;;;;;2.97;1.97;;;22.80;99.90;;;;;;5049062;28;21164;-53
2022/06/11 09:17:58;;;;;;;4.20;1.73;;;23.00;99.90;;;;;;5045497;28;20517;-54
2022/06/11 09:20:36;;;;;;;8.77;2.23;;;23.10;99.90;;;;;;5046552;28;20537;-54
2022/06/11 09:23:21;;;;;;;5.30;2.30;;;23.20;99.90;;;;;;5044937;28;20465;-54
2022/06/11 09:25:58;;;;;;;4.97;2.10;;;23.30;99.90;;;;;;5044878;28;20450;-54
2022/06/11 09:28:35;;;;;;;4.63;1.83;;;23.40;99.90;;;;;;5047794;28;20473;-54
2022/06/11 09:31:11;;;;;;;5.40;2.10;;;23.50;99.90;;;;;;5045750;28;20812;-53
2022/06/11 09:33:43;;;;;;;3.90;1.70;;;23.50;99.90;;;;;;5048739;28;20488;-54
2022/06/11 09:36:15;;;;;;;3.37;1.87;;;23.70;99.90;;;;;;5048546;28;20453;-53
2022/06/11 09:38:55;;;;;;;4.40;1.93;;;23.80;99.90;;;;;;5052217;22;20495;-51
2022/06/11 09:41:30;;;;;;;8.30;2.50;;;23.90;99.90;;;;;;5027536;28;20532;-51
2022/06/11 09:44:10;;;;;;;10.90;1.97;;;24.00;99.90;;;;;;5024535;28;20466;-52
2022/06/11 09:46:44;;;;;;;5.50;1.90;;;24.10;99.90;;;;;;5030221;28;20451;-53
2022/06/11 09:49:27;;;;;;;4.07;1.70;;;24.20;99.90;;;;;;5021901;28;20483;-53
2022/06/11 09:52:04;;;;;;;1.87;1.73;;;24.20;99.90;;;;;;5028918;28;20530;-52
2022/06/11 09:54:43;;;;;;;5.37;1.83;;;24.50;99.90;;;;;;5029571;28;20508;-52
2022/06/11 09:57:23;;;;;;;5.53;2.10;;;24.60;99.90;;;;;;5028562;28;20514;-54
2022/06/11 09:59:53;;;;;;;5.47;2.07;;;24.70;99.90;;;;;;5028314;28;20588;-52
2022/06/11 10:02:30;;;;;;;5.90;1.90;;;24.80;99.90;;;;;;5020517;28;20544;-54
2022/06/11 10:05:00;;;;;;;9.17;1.50;;;25.00;99.90;;;;;;5022560;28;20532;-52
2022/06/11 10:07:31;;;;;;;4.33;2.00;;;25.00;99.90;;;;;;5028188;28;20459;-52
2022/06/11 10:10:04;;;;;;;3.53;1.50;;;25.20;99.90;;;;;;5024513;28;20876;-53
2022/06/11 10:12:37;;;;;;;1.80;1.20;;;25.00;99.90;;;;;;5026869;28;20477;-53
2022/06/11 10:15:11;;;;;;;2.70;1.63;;;25.00;99.90;;;;;;5028195;28;20505;-53
2022/06/11 10:17:50;;;;;;;3.17;1.80;;;24.90;99.90;;;;;;5023210;28;20451;-52
2022/06/11 10:20:23;;;;;;;8.87;1.47;;;25.00;99.90;;;;;;5025139;28;20455;-52
2022/06/11 10:22:56;;;;;;;6.93;2.33;;;24.90;99.90;;;;;;5015336;28;20455;-52
2022/06/11 10:25:28;;;;;;;16.70;1.90;;;24.90;99.90;;;;;;5028330;28;20875;-53
2022/06/11 10:28:01;;;;;;;6.53;2.90;;;24.90;99.90;;;;;;5026900;28;20478;-51
2022/06/11 10:30:45;;;;;;;3.93;1.97;;;24.90;99.90;;;;;;5024400;28;20499;-52
2022/06/11 10:33:19;;;;;;;1.77;1.30;;;24.90;99.90;;;;;;5027269;28;20509;-53
2022/06/11 10:35:49;;;;;;;6.53;2.20;;;24.90;99.90;;;;;;5031520;28;20458;-53
2022/06/11 10:38:30;;;;;;;5.20;1.40;;;25.00;99.90;;;;;;5020816;28;21027;-52
2022/06/11 10:41:00;;;;;;;3.77;1.60;;;25.20;99.90;;;;;;5038148;28;20478;-52
2022/06/11 10:43:33;;;;;;;3.30;2.17;;;25.30;99.90;;;;;;5033170;28;20506;-52
2022/06/11 10:46:01;;;;;;;3.23;1.57;;;25.40;99.90;;;;;;5027840;28;20459;-53
2022/06/11 10:48:36;;;;;;;5.70;2.10;;;25.50;99.90;;;;;;5028367;28;20483;-53
2022/06/11 10:51:11;;;;;;;2.80;1.43;;;25.70;99.90;;;;;;5026976;28;20454;-52
2022/06/11 10:53:44;;;;;;;9.13;1.73;;;25.80;99.90;;;;;;5025861;28;20485;-53
2022/06/11 10:56:17;;;;;;;13.97;4.30;;;25.80;99.90;;;;;;5028581;28;20490;-51
2022/06/11 10:58:48;;;;;;;9.83;2.10;;;25.90;99.90;;;;;;5029351;28;20983;-51
2022/06/11 11:01:21;;;;;;;2.80;1.27;;;25.90;99.90;;;;;;5026533;28;20640;-52
2022/06/11 11:03:51;;;;;;;11.70;5.67;;;25.80;99.90;;;;;;5027821;28;20467;-52
2022/06/11 11:06:25;;;;;;;6.47;1.93;;;25.70;99.90;;;;;;5024195;28;20454;-52
2022/06/11 11:08:54;;;;;;;11.80;4.90;;;25.50;99.90;;;;;;5020342;28;20485;-52
2022/06/11 11:11:21;;;;;;;2.00;1.40;;;25.50;99.90;;;;;;5025585;28;20798;-53
2022/06/11 11:13:49;;;;;;;9.13;3.07;;;25.40;99.90;;;;;;5028245;28;20494;-52
2022/06/11 11:16:22;;;;;;;4.63;1.63;;;25.40;99.90;;;;;;5028980;28;20495;-54
2022/06/11 11:19:02;;;;;;;5.57;1.77;;;25.30;99.90;;;;;;5030707;28;21003;-51
2022/06/11 11:21:32;;;;;;;5.70;1.77;;;25.30;99.90;;;;;;5028064;28;20474;-51
2022/06/11 11:24:06;;;;;;;5.70;1.70;;;25.30;99.90;;;;;;5028061;28;20482;-52
2022/06/11 11:26:36;;;;;;;21.20;4.30;;;25.30;99.90;;;;;;5028738;28;20462;-52
2022/06/11 11:29:08;;;;;;;6.50;1.40;;;25.50;99.90;;;;;;5032893;28;20486;-51
2022/06/11 11:31:43;;;;;;;6.80;2.13;;;25.60;99.90;;;;;;5021386;28;20466;-51
2022/06/11 11:34:17;;;;;;;5.00;2.40;;;25.60;99.90;;;;;;5028529;28;20482;-52
2022/06/11 11:36:45;;;;;;;2.73;1.60;;;25.50;99.90;;;;;;5025916;28;20487;-52
2022/06/11 11:39:26;;;;;;;4.83;2.07;;;25.40;99.90;;;;;;5025069;28;20552;-52
2022/06/11 11:42:02;;;;;;;3.30;1.20;;;25.20;99.90;;;;;;5027378;28;20478;-52
2022/06/11 11:44:34;;;;;;;2.80;1.40;;;25.10;99.90;;;;;;5028874;28;20479;-52
2022/06/11 11:47:03;;;;;;;3.67;1.50;;;25.00;99.90;;;;;;5027543;28;20459;-52
2022/06/11 11:49:34;;;;;;;8.30;1.90;;;24.90;99.90;;;;;;5026363;28;20486;-52
2022/06/11 11:52:07;;;;;;;7.47;3.60;;;24.80;99.90;;;;;;5028977;28;20487;-52
2022/06/11 11:54:35;;;;;;;5.33;2.10;;;24.80;99.90;;;;;;5032479;28;21014;-52
2022/06/11 11:57:05;;;;;;;3.13;1.73;;;24.60;99.90;;;;;;5030862;28;20458;-53
2022/06/11 11:59:40;;;;;;;5.53;1.80;;;24.60;99.90;;;;;;5031053;28;20510;-51
2022/06/11 12:02:16;;;;;;;3.57;1.73;;;24.50;99.90;;;;;;5029498;28;20539;-53
2022/06/11 12:04:51;;;;;;;3.80;1.90;;;24.50;99.90;;;;;;5029695;28;20520;-53
2022/06/11 12:07:25;;;;;;;3.70;1.43;;;24.50;99.90;;;;;;5027504;28;20584;-53
2022/06/11 12:09:56;;;;;;;8.90;2.93;;;24.50;99.90;;;;;;5031168;28;20479;-53
2022/06/11 12:12:30;;;;;;;3.93;1.90;;;24.60;99.90;;;;;;5028081;28;20508;-51
2022/06/11 12:14:58;;;;;;;6.23;2.27;;;24.60;99.90;;;;;;5030498;28;20887;-52
2022/06/11 12:17:37;;;;;;;3.87;2.53;;;24.70;99.90;;;;;;5022555;28;20822;-52
2022/06/11 12:20:24;;;;;;;4.80;2.37;;;24.70;99.90;;;;;;5022502;28;20461;-52
2022/06/11 12:22:57;;;;;;;3.17;2.23;;;24.70;99.90;;;;;;5022814;28;20518;-52
2022/06/11 12:25:32;;;;;;;5.47;2.20;;;24.70;99.90;;;;;;5034850;28;20548;-52
2022/06/11 12:28:01;;;;;;;10.53;2.13;;;24.70;99.90;;;;;;5028944;28;20510;-53
2022/06/11 12:30:28;;;;;;;10.97;4.23;;;24.80;99.90;;;;;;5024796;28;22497;-52
2022/06/11 12:32:55;;;;;;;11.00;2.27;;;24.80;99.90;;;;;;5028069;28;20521;-53
2022/06/11 12:35:28;;;;;;;11.70;3.30;;;24.80;99.90;;;;;;5026534;28;20458;-53
2022/06/11 12:38:02;;;;;;;8.30;2.47;;;25.00;99.90;;;;;;5027144;28;20554;-51
2022/06/11 12:40:35;;;;;;;20.50;9.00;;;25.30;99.90;;;;;;5028423;28;20470;-53
2022/06/11 12:43:19;;;;;;;11.03;2.97;;;25.50;99.90;;;;;;5020886;28;20533;-52
2022/06/11 12:45:54;;;;;;;8.30;2.47;;;25.60;99.90;;;;;;5028500;28;20463;-52
2022/06/11 12:48:32;;;;;;;3.87;2.40;;;25.50;99.90;;;;;;5028149;28;20481;-53
2022/06/11 12:51:07;;;;;;;3.80;1.83;;;25.50;99.90;;;;;;5021401;28;20856;-50
2022/06/11 12:53:48;;;;;;;2.70;1.83;;;25.40;99.90;;;;;;5027410;28;20465;-51
2022/06/11 12:56:42;;;;;;;6.03;2.07;;;25.40;99.90;;;;;;5027571;28;20487;-52
2022/06/11 12:59:34;;;;;;;5.33;1.90;;;25.70;99.90;;;;;;5031424;28;20478;-51
2022/06/11 13:02:30;;;;;;;7.73;2.83;;;25.90;99.90;;;;;;5024520;28;20482;-52
2022/06/11 13:05:39;;;;;;;8.43;2.33;;;26.20;99.90;;;;;;5022897;28;20463;-53
2022/06/11 13:08:22;;;;;;;4.30;2.47;;;26.30;99.90;;;;;;5020264;28;20482;-52
2022/06/11 13:11:00;;;;;;;7.27;2.77;;;26.30;99.90;;;;;;5020348;28;21053;-53